createdAt,value
2022-09-02T00:01:40.034Z,95293.97
2022-09-02T00:04:27.077Z,95283.09
2022-09-02T00:10:00.540Z,95300.00
2022-09-02T00:12:46.558Z,95290.47
2022-09-02T00:15:34.247Z,95288.00
2022-09-02T00:18:20.405Z,95279.00
2022-09-02T00:21:08.396Z,95290.50
2022-09-02T00:23:54.534Z,95271.41
2022-09-02T00:26:40.393Z,95279.03
2022-09-02T00:29:27.548Z,95270.03
2022-09-02T00:32:13.623Z,95275.25
2022-09-02T00:35:00.158Z,95281.50
2022-09-02T00:37:46.259Z,95278.47
2022-09-02T00:40:33.238Z,95280.69
2022-09-02T00:43:46.948Z,95283.09
2022-09-02T00:46:33.721Z,95276.56
2022-09-02T00:49:27.006Z,95275.25
2022-09-02T00:52:27.498Z,95280.06
2022-09-02T00:55:19.849Z,95284.47
2022-09-02T00:58:10.068Z,95274.41
2022-09-02T01:00:58.067Z,95265.09
2022-09-02T01:03:44.683Z,95267.59
2022-09-02T01:06:33.192Z,95275.78
2022-09-02T01:09:19.501Z,95267.34
2022-09-02T01:12:07.128Z,95279.06
2022-09-02T01:14:53.735Z,95273.34
2022-09-02T01:17:46.376Z,95285.34
2022-09-02T01:20:32.993Z,95271.47
2022-09-02T01:23:19.261Z,95276.63
2022-09-02T01:26:07.931Z,95270.84
2022-09-02T01:28:53.982Z,95250.66
2022-09-02T01:31:40.240Z,95262.72
2022-09-02T01:34:26.160Z,95255.91
2022-09-02T01:37:12.543Z,95251.25
2022-09-02T01:39:59.767Z,95257.22
2022-09-02T01:42:46.902Z,95256.66
2022-09-02T01:45:33.952Z,95244.16
2022-09-02T01:48:21.659Z,95242.19
2022-09-02T01:51:08.566Z,95260.72
2022-09-02T01:53:54.750Z,95247.66
2022-09-02T01:56:40.680Z,95256.06
2022-09-02T01:59:26.652Z,95250.09
2022-09-02T02:02:13.772Z,95245.44
2022-09-02T02:05:01.002Z,95239.50
2022-09-02T02:07:46.982Z,95254.47
2022-09-02T02:10:33.486Z,95236.78
2022-09-02T02:13:19.896Z,95238.13
2022-09-02T02:16:06.421Z,95235.97
2022-09-02T02:18:52.661Z,95240.31
2022-09-02T02:21:39.505Z,95244.66
2022-09-02T02:24:25.867Z,95249.03
2022-09-02T02:27:12.045Z,95233.47
2022-09-02T02:29:58.495Z,95236.50
2022-09-02T02:32:47.090Z,95243.34
2022-09-02T02:35:35.550Z,95222.88
2022-09-02T02:38:21.865Z,95242.75
2022-09-02T02:41:09.745Z,95237.31
2022-09-02T02:43:56.197Z,95241.94
2022-09-02T02:46:43.698Z,95248.19
2022-09-02T02:49:30.428Z,95246.00
2022-09-02T02:52:16.830Z,95240.53
2022-09-02T02:55:02.984Z,95246.00
2022-09-02T02:57:49.811Z,95244.91
2022-09-02T03:00:37.063Z,95244.94
2022-09-02T03:03:23.529Z,95234.03
2022-09-02T03:06:12.717Z,95250.66
2022-09-02T03:08:59.812Z,95243.84
2022-09-02T03:11:47.510Z,95230.72
2022-09-02T03:14:34.049Z,95252.28
2022-09-02T03:17:20.034Z,95249.81
2022-09-02T03:20:08.019Z,95248.72
2022-09-02T03:22:59.209Z,95241.09
2022-09-02T03:25:46.220Z,95252.28
2022-09-02T03:28:43.858Z,95254.69
2022-09-02T03:31:30.164Z,95261.81
2022-09-02T03:34:17.887Z,95255.81
2022-09-02T03:37:03.805Z,95259.34
2022-09-02T03:39:49.997Z,95258.78
2022-09-02T03:42:35.757Z,95256.34
2022-09-02T03:45:21.866Z,95257.47
2022-09-02T03:48:09.356Z,95268.59
2022-09-02T03:50:56.865Z,95260.97
2022-09-02T03:53:42.787Z,95258.75
2022-09-02T03:56:28.830Z,95257.41
2022-09-02T03:59:16.333Z,95256.03
2022-09-02T04:02:03.330Z,95269.97
2022-09-02T04:04:50.039Z,95270.78
2022-09-02T04:07:36.119Z,95262.56
2022-09-02T04:10:22.409Z,95255.47
2022-09-02T04:13:09.101Z,95260.44
2022-09-02T04:15:58.526Z,95265.03
2022-09-02T04:18:47.630Z,95276.50
2022-09-02T04:21:36.214Z,95277.81
2022-09-02T04:24:22.639Z,95270.22
2022-09-02T04:27:09.610Z,95281.09
2022-09-02T04:29:56.352Z,95266.91
2022-09-02T04:32:43.732Z,95278.41
2022-09-02T04:35:29.686Z,95280.31
2022-09-02T04:38:16.900Z,95274.56
2022-09-02T04:41:18.224Z,95281.09
2022-09-02T04:44:05.147Z,95269.94
2022-09-02T04:46:55.869Z,95267.19
2022-09-02T04:49:43.197Z,95279.22
2022-09-02T04:52:30.785Z,95291.19
2022-09-02T04:55:16.809Z,95283.00
2022-09-02T04:58:03.533Z,95278.91
2022-09-02T05:00:52.010Z,95278.91
2022-09-02T05:03:38.060Z,95288.97
2022-09-02T05:06:27.493Z,95277.56
2022-09-02T05:09:16.904Z,95287.91
2022-09-02T05:12:06.008Z,95290.06
2022-09-02T05:15:02.474Z,95286.81
2022-09-02T05:17:50.817Z,95287.91
2022-09-02T05:20:39.705Z,95281.31
2022-09-02T05:23:26.202Z,95290.88
2022-09-02T05:26:13.211Z,95285.13
2022-09-02T05:29:00.972Z,95272.81
2022-09-02T05:31:48.918Z,95271.75
2022-09-02T05:34:36.192Z,95280.72
2022-09-02T05:37:24.636Z,95282.97
2022-09-02T05:40:14.897Z,95294.38
2022-09-02T05:43:02.297Z,95290.03
2022-09-02T05:45:49.125Z,95281.19
2022-09-02T05:48:55.912Z,95290.50
2022-09-02T05:51:48.399Z,95274.88
2022-09-02T05:54:38.801Z,95279.81
2022-09-02T05:57:27.706Z,95295.91
2022-09-02T06:00:18.385Z,95292.06
2022-09-02T06:03:19.410Z,95304.03
2022-09-02T06:06:08.405Z,95306.75
2022-09-02T06:08:57.196Z,95310.56
2022-09-02T06:11:45.488Z,95301.56
2022-09-02T06:14:35.024Z,95312.41
2022-09-02T06:17:20.954Z,95306.66
2022-09-02T06:20:11.857Z,95307.75
2022-09-02T06:23:00.667Z,95322.44
2022-09-02T06:25:48.645Z,95330.09
2022-09-02T06:28:35.501Z,95317.28
2022-09-02T06:31:23.170Z,95323.78
2022-09-02T06:34:12.497Z,95332.25
2022-09-02T06:37:00.082Z,95332.50
2022-09-02T06:39:46.796Z,95332.25
2022-09-02T06:42:38.589Z,95312.88
2022-09-02T06:45:40.456Z,95332.78
2022-09-02T06:48:32.856Z,95318.03
2022-09-02T06:51:26.366Z,95337.69
2022-09-02T06:54:17.497Z,95348.63
2022-09-02T06:57:05.406Z,95324.59
2022-09-02T06:59:52.800Z,95345.66
2022-09-02T07:03:06.252Z,95335.25
2022-09-02T07:06:11.584Z,95341.78
2022-09-02T07:09:03.200Z,95338.56
2022-09-02T07:11:50.588Z,95339.66
2022-09-02T07:14:42.857Z,95358.47
2022-09-02T07:17:30.806Z,95353.03
2022-09-02T07:20:26.250Z,95353.56
2022-09-02T07:23:18.612Z,95352.25
2022-09-02T07:26:05.202Z,95357.16
2022-09-02T07:28:52.797Z,95348.72
2022-09-02T07:31:42.540Z,95346.81
2022-09-02T07:34:30.396Z,95338.03
2022-09-02T07:37:18.081Z,95357.47
2022-09-02T07:40:06.630Z,95345.94
2022-09-02T07:42:53.308Z,95362.94
2022-09-02T07:45:43.372Z,95347.91
2022-09-02T07:48:30.744Z,95361.31
2022-09-02T07:51:19.002Z,95363.25
2022-09-02T07:54:06.559Z,95361.63
2022-09-02T07:56:53.265Z,95359.13
2022-09-02T07:59:43.561Z,95362.44
2022-09-02T08:02:43.077Z,95362.13
2022-09-02T08:05:34.357Z,95371.22
2022-09-02T08:08:21.188Z,95375.00
2022-09-02T08:11:17.837Z,95368.50
2022-09-02T08:14:03.858Z,95369.56
2022-09-02T08:16:50.181Z,95372.53
2022-09-02T08:19:36.423Z,95369.00
2022-09-02T08:22:22.371Z,95379.03
2022-09-02T08:25:09.048Z,95378.75
2022-09-02T08:30:47.073Z,95386.16
2022-09-02T08:33:33.307Z,95381.47
2022-09-02T08:36:21.122Z,95389.91
2022-09-02T08:39:07.225Z,95385.59
2022-09-02T08:42:11.738Z,95390.97
2022-09-02T08:45:07.581Z,95379.81
2022-09-02T08:48:16.244Z,95397.84
2022-09-02T08:51:13.528Z,95386.63
2022-09-02T08:54:27.866Z,95388.44
2022-09-02T08:57:13.913Z,95396.88
2022-09-02T09:00:02.066Z,95399.28
2022-09-02T09:02:56.848Z,95393.16
2022-09-02T09:05:57.990Z,95394.81
2022-09-02T09:09:26.261Z,95397.63
2022-09-02T09:12:42.522Z,95397.25
2022-09-02T09:15:49.799Z,95395.53
2022-09-02T09:18:43.525Z,95374.88
2022-09-02T09:21:31.951Z,95396.75
2022-09-02T09:24:36.869Z,95395.66
2022-09-02T09:27:23.492Z,95398.63
2022-09-02T09:30:15.101Z,95392.31
2022-09-02T09:33:02.777Z,95384.19
2022-09-02T09:35:54.585Z,95407.22
2022-09-02T09:38:40.657Z,95390.44
2022-09-02T09:41:29.037Z,95380.25
2022-09-02T09:44:41.082Z,95393.59
2022-09-02T09:47:27.633Z,95397.56
2022-09-02T09:50:16.894Z,95397.13
2022-09-02T09:53:23.019Z,95402.81
2022-09-02T09:56:15.732Z,95406.03
2022-09-02T09:59:01.948Z,95380.97
2022-09-02T10:01:52.070Z,95413.94
2022-09-02T10:04:45.399Z,95410.38
2022-09-02T10:07:59.240Z,95411.69
2022-09-02T10:10:55.713Z,95406.78
2022-09-02T10:13:42.883Z,95408.44
2022-09-02T10:17:15.070Z,95393.03
2022-09-02T10:20:23.019Z,95408.63
2022-09-02T10:23:09.214Z,95413.31
2022-09-02T10:26:05.313Z,95405.56
2022-09-02T10:29:38.365Z,95410.47
2022-09-02T10:32:46.616Z,95401.72
2022-09-02T10:35:43.517Z,95398.84
2022-09-02T10:38:32.489Z,95407.31
2022-09-02T10:41:37.337Z,95413.00
2022-09-02T10:44:47.046Z,95413.06
2022-09-02T10:47:38.514Z,95395.59
2022-09-02T10:50:33.602Z,95402.25
2022-09-02T10:53:46.959Z,95401.63
2022-09-02T10:57:00.186Z,95408.00
2022-09-02T11:00:00.034Z,95416.59
2022-09-02T11:02:51.725Z,95415.22
2022-09-02T11:05:48.193Z,95422.22
2022-09-02T11:08:40.252Z,95414.91
2022-09-02T11:11:38.603Z,95399.16
2022-09-02T11:14:28.013Z,95408.81
2022-09-02T11:17:31.427Z,95415.13
2022-09-02T11:20:30.785Z,95420.06
2022-09-02T11:23:42.047Z,95422.16
2022-09-02T11:26:41.544Z,95410.91
2022-09-02T11:29:55.089Z,95421.91
2022-09-02T11:32:56.942Z,95420.28
2022-09-02T11:35:44.387Z,95413.50
2022-09-02T11:38:54.871Z,95415.13
2022-09-02T11:41:43.984Z,95415.78
2022-09-02T11:44:52.739Z,95382.94
2022-09-02T11:48:05.279Z,95420.88
2022-09-02T11:54:07.235Z,95413.81
2022-09-02T11:56:58.661Z,95411.16
2022-09-02T11:59:53.457Z,95410.78
2022-09-02T12:02:45.988Z,95416.75
2022-09-02T12:05:35.302Z,95423.72
2022-09-02T12:08:35.784Z,95402.44
2022-09-02T12:11:42.857Z,95398.31
2022-09-02T12:14:29.120Z,95422.41
2022-09-02T12:18:05.647Z,95419.06
2022-09-02T12:20:57.802Z,95423.50
2022-09-02T12:23:53.864Z,95415.06
2022-09-02T12:26:39.745Z,95412.34
2022-09-02T12:29:31.397Z,95424.41
2022-09-02T12:32:51.963Z,95428.16
2022-09-02T12:35:59.128Z,95422.47
2022-09-02T12:38:45.341Z,95408.91
2022-09-02T12:41:31.794Z,95418.91
2022-09-02T12:44:28.624Z,95415.16
2022-09-02T12:47:45.424Z,95402.38
2022-09-02T12:50:50.909Z,95408.50
2022-09-02T12:53:44.031Z,95417.44
2022-09-02T12:56:29.981Z,95407.66
2022-09-02T12:59:37.435Z,95403.56
